Time,TemperatureF,DewpointF,PressureIn,WindDirection,WindDirectionDegrees,WindSpeedMPH,WindSpeedGustMPH,Humidity,HourlyPrecipIn,Conditions,Clouds,dailyrainin,SoftwareType,DateUTC
2013-01-30 00:00:00,48.5,47.4,30.00,West,268,0.0,0.0,96,0.00,,---,0.00,VWS V15.00,2013-01-30 05:00:00,
2013-01-30 00:01:00,49.2,47.8,30.03,West,268,0.0,0.0,95,0.00,,---,0.00,VWS V14.01,2013-01-30 05:01:00,
2013-01-30 00:18:00,49.1,47.7,30.03,West,268,0.0,0.0,95,0.00,,---,0.00,VWS V14.01,2013-01-30 05:18:00,
2013-01-30 00:30:00,48.9,47.5,30.02,West,268,0.0,0.0,95,0.00,,---,0.00,VWS V14.01,2013-01-30 05:30:00,
2013-01-30 00:48:00,48.6,47.5,30.01,West,268,0.0,0.0,96,0.00,,---,0.00,VWS V14.01,2013-01-30 05:48:00,
2013-01-30 01:00:00,48.4,47.6,29.98,West,268,0.0,0.0,97,0.00,,---,0.00,VWS V15.00,2013-01-30 06:00:00,
2013-01-30 01:01:00,48.5,47.4,30.00,West,268,0.0,0.0,96,0.00,,---,0.00,VWS V14.01,2013-01-30 06:01:00,
2013-01-30 01:18:00,48.5,47.4,30.00,West,268,0.0,0.0,96,0.00,,---,0.00,VWS V14.01,2013-01-30 06:18:00,
2013-01-30 01:30:00,51.0,50.7,29.97,West,268,0.0,0.0,99,0.00,,---,0.00,VWS V15.00,2013-01-30 06:30:00,
2013-01-30 01:31:00,48.3,47.2,29.99,West,268,0.0,0.0,96,0.00,,---,0.00,VWS V14.01,2013-01-30 06:31:00,
2013-01-30 01:48:00,48.3,47.5,29.98,West,268,0.0,0.0,97,0.00,,---,0.00,VWS V14.01,2013-01-30 06:48:00,
2013-01-30 02:00:00,52.3,51.8,29.96,West,268,0.0,1.0,98,0.00,,---,0.00,VWS V15.00,2013-01-30 07:00:00,
2013-01-30 02:01:00,48.4,47.6,29.98,West,268,0.0,0.0,97,0.00,,---,0.00,VWS V14.01,2013-01-30 07:01:00,
2013-01-30 02:18:00,49.5,49.0,29.97,West,268,0.0,0.0,98,0.00,,---,0.00,VWS V14.01,2013-01-30 07:18:00,
2013-01-30 02:30:00,56.8,56.0,29.94,NW,326,0.0,3.0,97,0.00,,---,0.00,VWS V15.00,2013-01-30 07:30:00,
2013-01-30 02:31:00,51.0,50.7,29.97,West,268,0.0,0.0,99,0.00,,---,0.00,VWS V14.01,2013-01-30 07:31:00,
2013-01-30 02:48:00,52.6,52.3,29.97,West,268,0.0,0.0,99,0.00,,---,0.00,VWS V14.01,2013-01-30 07:48:00,
2013-01-30 03:00:00,59.4,56.5,29.93,SW,225,0.0,6.0,90,0.00,,---,0.00,VWS V15.00,2013-01-30 08:00:00,
2013-01-30 03:01:00,52.3,51.8,29.96,West,268,0.0,1.0,98,0.00,,---,0.00,VWS V14.01,2013-01-30 08:01:00,
2013-01-30 03:03:00,52.4,51.8,29.96,West,268,0.0,0.0,98,0.00,,---,0.00,VWS V14.01,2013-01-30 08:03:00,
2013-01-30 03:18:00,55.0,54.7,29.95,WNW,292,0.0,3.0,99,0.00,,---,0.00,VWS V14.01,2013-01-30 08:18:00,
2013-01-30 03:30:00,59.8,56.6,29.92,WSW,245,0.0,7.0,89,0.00,,---,0.00,VWS V15.00,2013-01-30 08:30:00,
2013-01-30 03:31:00,56.8,56.0,29.94,NW,326,0.0,3.0,97,0.00,,---,0.00,VWS V14.01,2013-01-30 08:31:00,
2013-01-30 03:48:00,58.8,56.5,29.93,SW,236,1.0,6.0,92,0.00,,---,0.00,VWS V14.01,2013-01-30 08:48:00,
2013-01-30 04:00:00,59.7,57.4,29.91,SW,225,0.0,4.0,92,0.00,,---,0.00,VWS V15.00,2013-01-30 09:00:00,
2013-01-30 04:01:00,59.4,56.5,29.93,SW,225,0.0,6.0,90,0.00,,---,0.00,VWS V14.01,2013-01-30 09:01:00,
2013-01-30 04:18:00,59.6,56.4,29.93,West,267,2.0,7.0,89,0.00,,---,0.00,VWS V14.01,2013-01-30 09:18:00,
2013-01-30 04:30:00,59.5,56.6,29.89,NNE,24,0.0,5.0,90,0.00,,---,0.00,VWS V15.00,2013-01-30 09:30:00,
2013-01-30 04:31:00,59.8,56.6,29.92,WSW,245,0.0,7.0,89,0.00,,---,0.00,VWS V14.01,2013-01-30 09:31:00,
2013-01-30 04:48:00,59.7,56.8,29.91,West,268,0.0,4.0,90,0.00,,---,0.00,VWS V14.01,2013-01-30 09:48:00,
2013-01-30 05:00:00,59.6,57.0,29.88,WSW,257,0.0,5.0,91,0.00,,---,0.00,VWS V15.00,2013-01-30 10:00:00,
2013-01-30 05:01:00,59.7,57.4,29.91,SW,225,0.0,4.0,92,0.00,,---,0.00,VWS V14.01,2013-01-30 10:01:00,
2013-01-30 05:18:00,59.6,56.7,29.90,WSW,252,0.0,5.0,90,0.00,,---,0.00,VWS V14.01,2013-01-30 10:18:00,
2013-01-30 05:30:00,60.0,57.4,29.86,SW,227,0.0,7.0,91,0.00,,---,0.00,VWS V15.00,2013-01-30 10:30:00,
2013-01-30 05:31:00,59.5,56.6,29.90,NNE,24,0.0,5.0,90,0.00,,---,0.00,VWS V14.01,2013-01-30 10:31:00,
2013-01-30 05:48:00,59.5,56.9,29.89,SW,231,0.0,5.0,91,0.00,,---,0.00,VWS V14.01,2013-01-30 10:48:00,
2013-01-30 06:00:00,61.3,58.3,29.87,WSW,240,1.0,8.0,90,0.00,,---,0.00,VWS V15.00,2013-01-30 11:00:00,
2013-01-30 06:01:00,59.6,57.0,29.88,WSW,257,0.0,5.0,91,0.00,,---,0.00,VWS V14.01,2013-01-30 11:01:00,
2013-01-30 06:18:00,59.6,57.0,29.87,SSE,156,1.0,7.0,91,0.00,,---,0.00,VWS V14.01,2013-01-30 11:18:00,
2013-01-30 06:30:00,61.2,58.2,29.87,SSW,202,0.0,6.0,90,0.00,,---,0.00,VWS V15.00,2013-01-30 11:30:00,
2013-01-30 06:31:00,60.0,57.4,29.86,SW,227,0.0,7.0,91,0.00,,---,0.00,VWS V14.01,2013-01-30 11:31:00,
2013-01-30 06:48:00,60.9,58.3,29.85,WSW,254,1.0,8.0,91,0.00,,---,0.00,VWS V14.01,2013-01-30 11:48:00,
2013-01-30 07:00:00,61.8,59.2,29.86,West,273,3.0,6.0,91,0.00,,---,0.00,VWS V15.00,2013-01-30 12:00:00,
2013-01-30 07:01:00,61.3,58.3,29.87,WSW,240,1.0,8.0,90,0.00,,---,0.00,VWS V14.01,2013-01-30 12:01:00,
2013-01-30 07:18:00,61.3,58.3,29.88,SW,219,1.0,6.0,90,0.00,,---,0.00,VWS V14.01,2013-01-30 12:18:00,
2013-01-30 07:30:00,62.3,59.6,29.87,SSE,163,0.0,6.0,91,0.00,,---,0.00,VWS V15.00,2013-01-30 12:30:00,
2013-01-30 07:31:00,61.2,58.2,29.87,SSW,202,0.0,6.0,90,0.00,,---,0.00,VWS V14.01,2013-01-30 12:31:00,
2013-01-30 07:48:00,61.4,58.8,29.86,WSW,246,0.0,6.0,91,0.00,,---,0.00,VWS V14.01,2013-01-30 12:48:00,
2013-01-30 08:00:00,63.1,60.4,29.85,SW,230,4.0,8.0,91,0.00,,---,0.00,VWS V15.00,2013-01-30 13:00:00,
2013-01-30 08:01:00,61.8,59.2,29.86,West,273,3.0,6.0,91,0.00,,---,0.00,VWS V14.01,2013-01-30 13:01:00,
2013-01-30 08:18:00,62.2,59.5,29.87,NW,311,4.0,6.0,91,0.00,,---,0.00,VWS V14.01,2013-01-30 13:18:00,
2013-01-30 08:30:00,64.6,61.3,29.84,SW,214,4.0,6.0,89,0.00,,---,0.00,VWS V15.00,2013-01-30 13:30:00,
2013-01-30 08:31:00,62.3,59.6,29.87,SSE,163,0.0,6.0,91,0.00,,---,0.00,VWS V14.01,2013-01-30 13:31:00,
2013-01-30 08:48:00,62.6,59.9,29.85,SW,234,0.0,5.0,91,0.00,,---,0.00,VWS V14.01,2013-01-30 13:48:00,
2013-01-30 09:00:00,66.3,62.0,29.82,WSW,251,1.0,7.0,86,0.00,,---,0.00,VWS V15.00,2013-01-30 14:00:00,
2013-01-30 09:01:00,63.1,60.4,29.85,SW,230,4.0,8.0,91,0.00,,---,0.00,VWS V14.01,2013-01-30 14:01:00,
2013-01-30 09:18:00,64.0,61.0,29.85,WSW,244,1.0,5.0,90,0.00,,---,0.00,VWS V14.01,2013-01-30 14:18:00,
2013-01-30 09:30:00,66.9,62.2,29.80,SW,221,0.0,9.0,85,0.00,,---,0.00,VWS V15.00,2013-01-30 14:30:00,
2013-01-30 09:31:00,64.6,61.3,29.84,SW,214,4.0,6.0,89,0.00,,---,0.00,VWS V14.01,2013-01-30 14:31:00,
2013-01-30 09:49:00,65.6,62.0,29.83,WSW,255,1.0,6.0,88,0.00,,---,0.00,VWS V14.01,2013-01-30 14:49:00,
2013-01-30 10:00:00,66.3,62.0,29.82,WSW,251,1.0,7.0,86,0.00,,---,0.00,VWS V14.01,2013-01-30 15:00:00,
2013-01-30 10:19:00,66.7,62.0,29.80,WSW,253,0.0,8.0,85,0.00,,---,0.00,VWS V14.01,2013-01-30 15:19:00,
2013-01-30 10:30:00,68.3,62.9,29.77,WSW,237,1.0,9.0,83,0.00,,---,0.00,VWS V15.00,2013-01-30 15:30:00,
2013-01-30 10:31:00,66.9,62.2,29.80,SW,221,0.0,9.0,85,0.00,,---,0.00,VWS V14.01,2013-01-30 15:31:00,
2013-01-30 10:49:00,67.2,62.5,29.79,WSW,237,0.0,9.0,85,0.00,,---,0.00,VWS V14.01,2013-01-30 15:49:00,
2013-01-30 11:00:00,68.7,63.3,29.75,WNW,294,0.0,12.0,83,0.00,,---,0.00,VWS V15.00,2013-01-30 16:00:00,
2013-01-30 11:01:00,67.7,62.7,29.79,West,259,0.0,9.0,84,0.00,,---,0.00,VWS V14.01,2013-01-30 16:01:00,
2013-01-30 11:19:00,68.1,62.8,29.77,WSW,238,4.0,6.0,83,0.00,,---,0.00,VWS V14.01,2013-01-30 16:19:00,
2013-01-30 11:30:00,69.4,63.7,29.72,South,178,0.0,11.0,82,0.00,,---,0.00,VWS V15.00,2013-01-30 16:30:00,
2013-01-30 11:31:00,68.3,62.9,29.77,WSW,237,1.0,9.0,83,0.00,,---,0.00,VWS V14.01,2013-01-30 16:31:00,
2013-01-30 11:49:00,68.5,63.1,29.75,SW,229,0.0,9.0,83,0.00,,---,0.00,VWS V14.01,2013-01-30 16:49:00,
2013-01-30 12:00:00,69.5,63.8,29.69,West,269,4.0,9.0,82,0.00,,---,0.00,VWS V15.00,2013-01-30 17:00:00,
2013-01-30 12:01:00,68.7,63.3,29.75,WNW,294,0.0,12.0,83,0.00,,---,0.00,VWS V14.01,2013-01-30 17:01:00,
2013-01-30 12:19:00,69.2,63.5,29.73,South,175,1.0,11.0,82,0.00,,---,0.00,VWS V14.01,2013-01-30 17:19:00,
2013-01-30 12:30:00,69.2,63.5,29.68,North,5,2.0,8.0,82,0.00,,---,0.00,VWS V15.00,2013-01-30 17:30:00,
2013-01-30 12:31:00,69.4,63.7,29.72,South,178,0.0,11.0,82,0.00,,---,0.00,VWS V14.01,2013-01-30 17:31:00,
2013-01-30 12:49:00,69.5,63.8,29.70,WSW,243,0.0,9.0,82,0.00,,---,0.00,VWS V14.01,2013-01-30 17:49:00,
2013-01-30 13:00:00,70.0,63.9,29.67,West,276,0.0,8.0,81,0.00,,---,0.00,VWS V15.00,2013-01-30 18:00:00,
2013-01-30 13:01:00,69.5,63.8,29.69,West,269,4.0,9.0,82,0.00,,---,0.00,VWS V14.01,2013-01-30 18:01:00,
2013-01-30 13:19:00,69.3,63.6,29.68,WSW,254,0.0,7.0,82,0.00,,---,0.00,VWS V14.01,2013-01-30 18:19:00,
2013-01-30 13:30:00,70.6,64.1,29.66,WSW,240,1.0,8.0,80,0.00,,---,0.00,VWS V15.00,2013-01-30 18:30:00,
2013-01-30 13:31:00,69.2,63.5,29.68,North,5,2.0,8.0,82,0.00,,---,0.00,VWS V14.01,2013-01-30 18:31:00,
2013-01-30 13:49:00,69.8,64.1,29.67,SSW,209,0.0,7.0,82,0.00,,---,0.00,VWS V14.01,2013-01-30 18:49:00,
2013-01-30 14:00:00,71.0,64.2,29.66,SW,232,2.0,10.0,79,0.00,,---,0.00,VWS V15.00,2013-01-30 19:00:00,
2013-01-30 14:01:00,70.0,63.9,29.67,West,276,0.0,8.0,81,0.00,,---,0.00,VWS V14.01,2013-01-30 19:01:00,
2013-01-30 14:19:00,70.4,63.9,29.67,WSW,257,3.0,8.0,80,0.00,,---,0.00,VWS V14.01,2013-01-30 19:19:00,
2013-01-30 14:30:00,71.2,64.4,29.66,WSW,240,2.0,10.0,79,0.00,,---,0.00,VWS V15.00,2013-01-30 19:30:00,
2013-01-30 14:31:00,70.6,64.1,29.66,WSW,240,1.0,8.0,80,0.00,,---,0.00,VWS V14.01,2013-01-30 19:31:00,
2013-01-30 14:49:00,70.8,64.0,29.66,WSW,242,2.0,10.0,79,0.00,,---,0.00,VWS V14.01,2013-01-30 19:49:00,
2013-01-30 15:00:00,71.1,64.3,29.64,South,173,0.0,9.0,79,0.00,,---,0.00,VWS V15.00,2013-01-30 20:00:00,
2013-01-30 15:01:00,71.0,64.2,29.66,SW,232,2.0,10.0,79,0.00,,---,0.00,VWS V14.01,2013-01-30 20:01:00,
2013-01-30 15:19:00,71.1,64.3,29.65,WSW,237,3.0,10.0,79,0.00,,---,0.00,VWS V14.01,2013-01-30 20:19:00,
2013-01-30 15:30:00,71.2,64.7,29.63,WNW,295,1.0,11.0,80,0.00,,---,0.00,VWS V15.00,2013-01-30 20:30:00,
2013-01-30 15:31:00,71.2,64.4,29.66,WSW,240,2.0,10.0,79,0.00,,---,0.00,VWS V14.01,2013-01-30 20:31:00,
2013-01-30 15:49:00,71.1,64.3,29.65,SW,222,0.0,9.0,79,0.00,,---,0.00,VWS V14.01,2013-01-30 20:49:00,
2013-01-30 16:00:00,71.0,64.5,29.61,SW,215,0.0,13.0,80,0.00,,---,0.00,VWS V15.00,2013-01-30 21:00:00,
2013-01-30 16:01:00,71.1,64.3,29.64,South,173,0.0,9.0,79,0.00,,---,0.00,VWS V14.01,2013-01-30 21:01:00,
2013-01-30 16:19:00,71.1,64.6,29.63,WNW,296,2.0,11.0,80,0.00,,---,0.00,VWS V14.01,2013-01-30 21:19:00,
2013-01-30 16:30:00,70.7,64.6,29.61,SW,229,1.0,7.0,81,0.00,,---,0.00,VWS V15.00,2013-01-30 21:30:00,
2013-01-30 16:31:00,71.2,64.7,29.63,WNW,295,1.0,11.0,80,0.00,,---,0.00,VWS V14.01,2013-01-30 21:31:00,
2013-01-30 16:49:00,71.2,64.4,29.62,SW,229,3.0,13.0,79,0.00,,---,0.00,VWS V14.01,2013-01-30 21:49:00,
2013-01-30 17:00:00,69.9,64.5,29.58,WSW,241,0.0,10.0,83,0.00,,---,0.00,VWS V15.00,2013-01-30 22:00:00,
2013-01-30 17:01:00,71.0,64.5,29.61,SW,215,0.0,13.0,80,0.00,,---,0.00,VWS V14.01,2013-01-30 22:01:00,
2013-01-30 17:19:00,70.9,64.4,29.62,West,261,1.0,6.0,80,0.00,,---,0.00,VWS V14.01,2013-01-30 22:19:00,
2013-01-30 17:30:00,69.8,64.1,29.55,WSW,243,1.0,7.0,82,0.00,,---,0.00,VWS V15.00,2013-01-30 22:30:00,
2013-01-30 17:31:00,70.7,64.6,29.61,SW,229,1.0,7.0,81,0.00,,---,0.00,VWS V14.01,2013-01-30 22:31:00,
2013-01-30 17:49:00,70.0,64.6,29.58,ENE,76,0.0,6.0,83,0.00,,---,0.00,VWS V14.01,2013-01-30 22:49:00,
2013-01-30 18:00:00,69.4,63.7,29.54,WSW,242,0.0,8.0,82,0.00,,---,0.00,VWS V15.00,2013-01-30 23:00:00,
2013-01-30 18:01:00,69.9,64.5,29.58,WSW,241,0.0,10.0,83,0.00,,---,0.00,VWS V14.01,2013-01-30 23:01:00,
2013-01-30 18:19:00,69.9,64.2,29.57,WSW,250,0.0,6.0,82,0.00,,---,0.00,VWS V14.01,2013-01-30 23:19:00,
2013-01-30 18:30:00,69.7,63.6,29.52,WNW,282,1.0,6.0,81,0.00,,---,0.00,VWS V15.00,2013-01-30 23:30:00,
2013-01-30 18:31:00,69.8,64.1,29.55,WSW,243,1.0,7.0,82,0.00,,---,0.00,VWS V14.01,2013-01-30 23:31:00,
2013-01-30 18:49:00,69.6,63.9,29.54,SW,236,0.0,6.0,82,0.00,,---,0.00,VWS V14.01,2013-01-30 23:49:00,
2013-01-30 19:00:00,70.1,63.7,29.53,NW,306,0.0,8.0,80,0.00,,---,0.00,VWS V15.00,2013-01-31 00:00:00,
2013-01-30 19:01:00,69.4,63.7,29.54,WSW,242,0.0,8.0,82,0.00,,---,0.00,VWS V14.01,2013-01-31 00:01:00,
2013-01-30 19:19:00,69.6,63.9,29.52,West,267,3.0,5.0,82,0.00,,---,0.00,VWS V14.01,2013-01-31 00:19:00,
2013-01-30 19:30:00,61.2,58.6,29.56,SSW,210,1.0,5.0,91,0.35,,---,0.35,VWS V15.00,2013-01-31 00:30:00,
2013-01-30 19:31:00,69.7,63.6,29.52,WNW,282,1.0,6.0,81,0.00,,---,0.00,VWS V14.01,2013-01-31 00:31:00,
2013-01-30 19:49:00,70.1,63.7,29.51,WSW,250,0.0,8.0,80,0.00,,---,0.00,VWS V14.01,2013-01-31 00:49:00,
2013-01-30 20:00:00,59.0,57.9,29.53,ENE,67,0.0,3.0,96,0.44,,---,0.44,VWS V15.00,2013-01-31 01:00:00,
2013-01-30 20:01:00,70.1,63.7,29.53,NW,306,0.0,8.0,80,0.00,,---,0.00,VWS V14.01,2013-01-31 01:01:00,
2013-01-30 20:19:00,64.8,59.5,29.54,East,94,0.0,5.0,83,0.21,,---,0.21,VWS V14.01,2013-01-31 01:19:00,
2013-01-30 20:30:00,58.6,57.8,29.48,ENE,67,0.0,1.0,97,0.52,,---,0.52,VWS V15.00,2013-01-31 01:30:00,
2013-01-30 20:31:00,61.2,58.6,29.56,SSW,210,1.0,5.0,91,0.35,,---,0.35,VWS V14.01,2013-01-31 01:31:00,
2013-01-30 20:50:00,59.2,57.8,29.51,ENE,67,0.0,3.0,95,0.40,,---,0.40,VWS V14.01,2013-01-31 01:50:00,
2013-01-30 21:00:00,58.0,57.4,29.43,ENE,74,0.0,2.0,98,0.30,,---,0.65,VWS V15.00,2013-01-31 02:00:00,
2013-01-30 21:01:00,59.0,57.9,29.53,ENE,67,0.0,3.0,96,0.44,,---,0.44,VWS V14.01,2013-01-31 02:01:00,
2013-01-30 21:20:00,58.9,58.0,29.50,ENE,67,0.0,1.0,97,0.51,,---,0.51,VWS V14.01,2013-01-31 02:20:00,
2013-01-30 21:30:00,58.0,57.7,29.40,ENE,74,0.0,2.0,99,0.29,,---,0.73,VWS V15.00,2013-01-31 02:30:00,
2013-01-30 21:31:00,58.6,57.8,29.48,ENE,67,0.0,1.0,97,0.52,,---,0.52,VWS V14.01,2013-01-31 02:31:00,
2013-01-30 21:50:00,58.2,57.6,29.46,ENE,67,0.0,0.0,98,0.23,,---,0.58,VWS V14.01,2013-01-31 02:50:00,
2013-01-30 22:00:00,58.0,57.7,29.36,ENE,74,0.0,1.0,99,0.27,,---,0.79,VWS V15.00,2013-01-31 03:00:00,
2013-01-30 22:01:00,58.0,57.4,29.43,ENE,74,0.0,2.0,98,0.30,,---,0.65,VWS V14.01,2013-01-31 03:01:00,
2013-01-30 22:20:00,58.0,57.4,29.41,ENE,74,0.0,0.0,98,0.26,,---,0.70,VWS V14.01,2013-01-31 03:20:00,
2013-01-30 22:30:00,59.0,59.0,29.31,WSW,257,0.0,4.0,100,0.17,,---,0.82,VWS V15.00,2013-01-31 03:30:00,
2013-01-30 22:31:00,58.0,57.7,29.40,ENE,74,0.0,2.0,99,0.29,,---,0.73,VWS V14.01,2013-01-31 03:31:00,
2013-01-30 22:50:00,58.0,57.7,29.37,ENE,74,0.0,1.0,99,0.25,,---,0.77,VWS V14.01,2013-01-31 03:50:00,
2013-01-30 23:00:00,63.4,63.1,29.25,SSW,204,5.0,10.0,99,0.11,,---,0.00,VWS V15.00,2013-01-31 04:00:00,
2013-01-30 23:01:00,58.0,57.7,29.36,ENE,74,0.0,1.0,99,0.27,,---,0.79,VWS V14.01,2013-01-31 04:01:00,
2013-01-30 23:20:00,58.1,57.8,29.33,ENE,74,0.0,0.0,99,0.17,,---,0.82,VWS V14.01,2013-01-31 04:20:00,
2013-01-30 23:30:00,65.1,63.6,29.26,SSW,207,0.0,11.0,95,0.07,,---,0.02,VWS V15.00,2013-01-31 04:30:00,
2013-01-30 23:31:00,59.0,59.0,29.31,WSW,257,0.0,4.0,100,0.17,,---,0.82,VWS V14.01,2013-01-31 04:31:00,
2013-01-30 23:50:00,62.6,62.6,29.27,SSW,195,0.0,8.0,100,0.10,,---,0.83,VWS V14.01,2013-01-31 04:50:00,